sensor_id;sensor_type;location;lat;lon;timestamp;P1;durP1;ratioP1;P2;durP2;ratioP2
17384;SDS011;8810;48.680;8.894;2023-02-15T00:01:29;26.20;;;11.70;;
17384;SDS011;8810;48.680;8.894;2023-02-15T00:03:58;25.40;;;11.07;;
17384;SDS011;8810;48.680;8.894;2023-02-15T00:06:25;22.73;;;10.23;;
17384;SDS011;8810;48.680;8.894;2023-02-15T00:08:53;22.80;;;9.97;;
17384;SDS011;8810;48.680;8.894;2023-02-15T00:11:20;26.43;;;11.17;;
17384;SDS011;8810;48.680;8.894;2023-02-15T00:14:01;19.30;;;10.07;;
17384;SDS011;8810;48.680;8.894;2023-02-15T00:16:28;21.20;;;10.17;;
17384;SDS011;8810;48.680;8.894;2023-02-15T00:18:55;17.90;;;9.77;;
17384;SDS011;8810;48.680;8.894;2023-02-15T00:21:27;24.13;;;11.10;;
17384;SDS011;8810;48.680;8.894;2023-02-15T00:23:54;24.27;;;11.23;;
17384;SDS011;8810;48.680;8.894;2023-02-15T00:26:21;22.80;;;10.23;;
17384;SDS011;8810;48.680;8.894;2023-02-15T00:28:49;19.37;;;10.03;;
17384;SDS011;8810;48.680;8.894;2023-02-15T00:31:16;24.00;;;10.23;;
17384;SDS011;8810;48.680;8.894;2023-02-15T00:33:43;24.63;;;11.20;;
17384;SDS011;8810;48.680;8.894;2023-02-15T00:36:11;26.73;;;10.77;;
17384;SDS011;8810;48.680;8.894;2023-02-15T00:38:39;21.90;;;10.77;;
17384;SDS011;8810;48.680;8.894;2023-02-15T00:41:06;20.73;;;10.33;;
17384;SDS011;8810;48.680;8.894;2023-02-15T00:43:34;20.20;;;9.47;;
17384;SDS011;8810;48.680;8.894;2023-02-15T00:46:01;22.47;;;10.90;;
17384;SDS011;8810;48.680;8.894;2023-02-15T00:48:29;20.83;;;10.10;;
17384;SDS011;8810;48.680;8.894;2023-02-15T00:50:56;20.60;;;10.40;;
17384;SDS011;8810;48.680;8.894;2023-02-15T00:53:25;20.77;;;9.80;;
17384;SDS011;8810;48.680;8.894;2023-02-15T00:55:53;19.23;;;9.93;;
17384;SDS011;8810;48.680;8.894;2023-02-15T00:58:21;20.27;;;10.17;;
17384;SDS011;8810;48.680;8.894;2023-02-15T01:00:48;21.50;;;10.27;;
17384;SDS011;8810;48.680;8.894;2023-02-15T01:03:15;21.50;;;9.73;;
17384;SDS011;8810;48.680;8.894;2023-02-15T01:05:43;18.70;;;9.43;;
17384;SDS011;8810;48.680;8.894;2023-02-15T01:08:10;19.87;;;9.83;;
17384;SDS011;8810;48.680;8.894;2023-02-15T01:10:39;20.27;;;9.77;;
17384;SDS011;8810;48.680;8.894;2023-02-15T01:13:06;23.97;;;9.97;;
17384;SDS011;8810;48.680;8.894;2023-02-15T01:15:33;21.80;;;9.83;;
17384;SDS011;8810;48.680;8.894;2023-02-15T01:18:01;22.40;;;10.13;;
17384;SDS011;8810;48.680;8.894;2023-02-15T01:20:28;19.13;;;10.03;;
17384;SDS011;8810;48.680;8.894;2023-02-15T01:22:57;23.87;;;10.57;;
17384;SDS011;8810;48.680;8.894;2023-02-15T01:25:24;22.00;;;9.33;;
17384;SDS011;8810;48.680;8.894;2023-02-15T01:27:52;21.10;;;9.70;;
17384;SDS011;8810;48.680;8.894;2023-02-15T01:30:19;19.93;;;9.87;;
17384;SDS011;8810;48.680;8.894;2023-02-15T01:32:46;20.17;;;9.67;;
17384;SDS011;8810;48.680;8.894;2023-02-15T01:35:13;18.80;;;9.33;;
17384;SDS011;8810;48.680;8.894;2023-02-15T01:37:40;21.90;;;9.57;;
17384;SDS011;8810;48.680;8.894;2023-02-15T01:40:07;17.80;;;8.77;;
17384;SDS011;8810;48.680;8.894;2023-02-15T01:42:38;16.13;;;8.63;;
17384;SDS011;8810;48.680;8.894;2023-02-15T01:45:10;19.33;;;9.00;;
17384;SDS011;8810;48.680;8.894;2023-02-15T01:47:47;20.30;;;9.23;;
17384;SDS011;8810;48.680;8.894;2023-02-15T01:50:20;21.93;;;9.10;;
17384;SDS011;8810;48.680;8.894;2023-02-15T01:52:50;20.00;;;8.97;;
17384;SDS011;8810;48.680;8.894;2023-02-15T01:55:22;20.63;;;9.07;;
17384;SDS011;8810;48.680;8.894;2023-02-15T01:57:50;18.87;;;9.27;;
17384;SDS011;8810;48.680;8.894;2023-02-15T02:00:19;17.40;;;8.93;;
17384;SDS011;8810;48.680;8.894;2023-02-15T02:02:47;20.00;;;9.33;;
17384;SDS011;8810;48.680;8.894;2023-02-15T02:05:17;19.97;;;8.43;;
17384;SDS011;8810;48.680;8.894;2023-02-15T02:07:44;17.10;;;8.50;;
17384;SDS011;8810;48.680;8.894;2023-02-15T02:10:13;21.00;;;8.63;;
17384;SDS011;8810;48.680;8.894;2023-02-15T02:12:42;18.37;;;8.93;;
17384;SDS011;8810;48.680;8.894;2023-02-15T02:15:12;16.67;;;8.00;;
17384;SDS011;8810;48.680;8.894;2023-02-15T02:17:47;19.97;;;8.63;;
17384;SDS011;8810;48.680;8.894;2023-02-15T02:20:29;17.67;;;8.20;;
17384;SDS011;8810;48.680;8.894;2023-02-15T02:26:11;19.93;;;8.87;;
17384;SDS011;8810;48.680;8.894;2023-02-15T02:29:20;15.47;;;7.90;;
17384;SDS011;8810;48.680;8.894;2023-02-15T02:32:11;18.93;;;8.13;;
17384;SDS011;8810;48.680;8.894;2023-02-15T02:35:03;17.67;;;7.97;;
17384;SDS011;8810;48.680;8.894;2023-02-15T02:37:37;16.23;;;8.77;;
17384;SDS011;8810;48.680;8.894;2023-02-15T02:40:13;22.43;;;8.07;;
17384;SDS011;8810;48.680;8.894;2023-02-15T02:42:48;18.90;;;8.30;;
17384;SDS011;8810;48.680;8.894;2023-02-15T02:45:22;20.67;;;8.60;;
17384;SDS011;8810;48.680;8.894;2023-02-15T02:47:55;18.37;;;8.60;;
17384;SDS011;8810;48.680;8.894;2023-02-15T02:50:27;17.67;;;8.60;;
17384;SDS011;8810;48.680;8.894;2023-02-15T02:52:56;16.13;;;8.17;;
17384;SDS011;8810;48.680;8.894;2023-02-15T02:55:24;21.97;;;8.83;;
17384;SDS011;8810;48.680;8.894;2023-02-15T02:57:57;18.63;;;8.30;;
17384;SDS011;8810;48.680;8.894;2023-02-15T03:00:27;20.40;;;8.10;;
17384;SDS011;8810;48.680;8.894;2023-02-15T03:02:59;17.47;;;7.97;;
17384;SDS011;8810;48.680;8.894;2023-02-15T03:05:31;16.30;;;8.10;;
17384;SDS011;8810;48.680;8.894;2023-02-15T03:08:00;17.33;;;7.50;;
17384;SDS011;8810;48.680;8.894;2023-02-15T03:10:34;15.40;;;7.70;;
17384;SDS011;8810;48.680;8.894;2023-02-15T03:13:03;17.57;;;7.80;;
17384;SDS011;8810;48.680;8.894;2023-02-15T03:15:31;18.23;;;8.07;;
17384;SDS011;8810;48.680;8.894;2023-02-15T03:18:16;16.67;;;7.70;;
17384;SDS011;8810;48.680;8.894;2023-02-15T03:20:47;17.43;;;7.57;;
17384;SDS011;8810;48.680;8.894;2023-02-15T03:23:17;15.90;;;7.47;;
17384;SDS011;8810;48.680;8.894;2023-02-15T03:25:48;16.77;;;7.93;;
17384;SDS011;8810;48.680;8.894;2023-02-15T03:28:19;19.77;;;8.17;;
17384;SDS011;8810;48.680;8.894;2023-02-15T03:30:51;17.10;;;7.90;;
17384;SDS011;8810;48.680;8.894;2023-02-15T03:33:21;19.27;;;8.43;;
17384;SDS011;8810;48.680;8.894;2023-02-15T03:35:54;19.07;;;7.83;;
17384;SDS011;8810;48.680;8.894;2023-02-15T03:38:29;17.80;;;8.10;;
17384;SDS011;8810;48.680;8.894;2023-02-15T03:41:02;17.50;;;7.70;;
17384;SDS011;8810;48.680;8.894;2023-02-15T03:43:39;16.53;;;7.60;;
17384;SDS011;8810;48.680;8.894;2023-02-15T03:46:12;14.47;;;7.37;;
17384;SDS011;8810;48.680;8.894;2023-02-15T03:48:44;14.67;;;6.90;;
17384;SDS011;8810;48.680;8.894;2023-02-15T03:51:17;13.03;;;7.13;;
17384;SDS011;8810;48.680;8.894;2023-02-15T03:53:59;15.47;;;7.37;;
17384;SDS011;8810;48.680;8.894;2023-02-15T03:56:28;15.63;;;7.67;;
17384;SDS011;8810;48.680;8.894;2023-02-15T03:58:55;14.27;;;7.47;;
17384;SDS011;8810;48.680;8.894;2023-02-15T04:01:39;16.77;;;6.97;;
17384;SDS011;8810;48.680;8.894;2023-02-15T04:04:24;16.37;;;7.53;;
17384;SDS011;8810;48.680;8.894;2023-02-15T04:06:59;12.67;;;6.90;;
17384;SDS011;8810;48.680;8.894;2023-02-15T04:09:26;12.73;;;6.73;;
17384;SDS011;8810;48.680;8.894;2023-02-15T04:12:10;15.10;;;6.80;;
17384;SDS011;8810;48.680;8.894;2023-02-15T04:14:37;18.03;;;7.47;;
17384;SDS011;8810;48.680;8.894;2023-02-15T04:17:21;13.97;;;7.00;;
17384;SDS011;8810;48.680;8.894;2023-02-15T04:19:48;13.57;;;6.93;;
17384;SDS011;8810;48.680;8.894;2023-02-15T04:22:34;14.03;;;7.30;;
17384;SDS011;8810;48.680;8.894;2023-02-15T04:25:19;13.97;;;6.70;;
17384;SDS011;8810;48.680;8.894;2023-02-15T04:27:47;12.03;;;6.80;;
17384;SDS011;8810;48.680;8.894;2023-02-15T04:30:15;14.33;;;6.93;;
17384;SDS011;8810;48.680;8.894;2023-02-15T04:32:44;15.03;;;6.67;;
17384;SDS011;8810;48.680;8.894;2023-02-15T04:35:11;14.13;;;6.60;;
17384;SDS011;8810;48.680;8.894;2023-02-15T04:37:40;16.00;;;7.77;;
17384;SDS011;8810;48.680;8.894;2023-02-15T04:40:08;16.83;;;7.37;;
17384;SDS011;8810;48.680;8.894;2023-02-15T04:42:36;14.80;;;7.23;;
17384;SDS011;8810;48.680;8.894;2023-02-15T04:45:04;15.17;;;7.73;;
17384;SDS011;8810;48.680;8.894;2023-02-15T04:47:31;14.47;;;7.03;;
17384;SDS011;8810;48.680;8.894;2023-02-15T04:49:58;14.10;;;7.57;;
17384;SDS011;8810;48.680;8.894;2023-02-15T04:52:25;14.90;;;7.67;;
17384;SDS011;8810;48.680;8.894;2023-02-15T04:54:54;15.07;;;7.33;;
17384;SDS011;8810;48.680;8.894;2023-02-15T04:57:20;15.33;;;7.17;;
17384;SDS011;8810;48.680;8.894;2023-02-15T04:59:47;18.20;;;8.57;;
17384;SDS011;8810;48.680;8.894;2023-02-15T05:02:14;15.83;;;8.13;;
17384;SDS011;8810;48.680;8.894;2023-02-15T05:04:41;21.53;;;8.03;;
17384;SDS011;8810;48.680;8.894;2023-02-15T05:07:08;21.03;;;8.30;;
17384;SDS011;8810;48.680;8.894;2023-02-15T05:09:34;16.97;;;6.80;;
17384;SDS011;8810;48.680;8.894;2023-02-15T05:12:03;13.97;;;6.63;;
17384;SDS011;8810;48.680;8.894;2023-02-15T05:14:30;14.53;;;7.13;;
17384;SDS011;8810;48.680;8.894;2023-02-15T05:16:57;15.50;;;7.20;;
17384;SDS011;8810;48.680;8.894;2023-02-15T05:19:26;16.70;;;7.43;;
17384;SDS011;8810;48.680;8.894;2023-02-15T05:21:53;13.93;;;7.10;;
17384;SDS011;8810;48.680;8.894;2023-02-15T05:24:20;14.50;;;6.53;;
17384;SDS011;8810;48.680;8.894;2023-02-15T05:27:05;14.97;;;6.80;;
17384;SDS011;8810;48.680;8.894;2023-02-15T05:29:50;17.20;;;6.90;;
17384;SDS011;8810;48.680;8.894;2023-02-15T05:32:16;17.13;;;7.13;;
17384;SDS011;8810;48.680;8.894;2023-02-15T05:34:43;19.70;;;9.40;;
17384;SDS011;8810;48.680;8.894;2023-02-15T05:37:10;35.00;;;13.93;;
17384;SDS011;8810;48.680;8.894;2023-02-15T05:39:37;30.37;;;12.93;;
17384;SDS011;8810;48.680;8.894;2023-02-15T05:42:05;26.57;;;11.57;;
17384;SDS011;8810;48.680;8.894;2023-02-15T05:44:32;26.13;;;11.70;;
17384;SDS011;8810;48.680;8.894;2023-02-15T05:46:59;35.67;;;12.30;;
17384;SDS011;8810;48.680;8.894;2023-02-15T05:49:27;22.70;;;10.33;;
17384;SDS011;8810;48.680;8.894;2023-02-15T05:51:55;20.97;;;10.40;;
17384;SDS011;8810;48.680;8.894;2023-02-15T05:54:22;17.87;;;9.27;;
17384;SDS011;8810;48.680;8.894;2023-02-15T05:56:49;20.23;;;9.67;;
17384;SDS011;8810;48.680;8.894;2023-02-15T05:59:17;15.03;;;8.33;;
17384;SDS011;8810;48.680;8.894;2023-02-15T06:01:44;20.27;;;8.77;;
17384;SDS011;8810;48.680;8.894;2023-02-15T06:04:11;18.87;;;8.63;;
17384;SDS011;8810;48.680;8.894;2023-02-15T06:06:39;17.60;;;8.90;;
17384;SDS011;8810;48.680;8.894;2023-02-15T06:09:05;19.50;;;8.80;;
17384;SDS011;8810;48.680;8.894;2023-02-15T06:11:32;20.10;;;9.83;;
17384;SDS011;8810;48.680;8.894;2023-02-15T06:13:59;16.83;;;8.60;;
17384;SDS011;8810;48.680;8.894;2023-02-15T06:16:27;21.57;;;8.43;;
17384;SDS011;8810;48.680;8.894;2023-02-15T06:18:54;16.27;;;7.27;;
17384;SDS011;8810;48.680;8.894;2023-02-15T06:21:21;16.07;;;7.93;;
17384;SDS011;8810;48.680;8.894;2023-02-15T06:23:48;16.53;;;7.97;;
17384;SDS011;8810;48.680;8.894;2023-02-15T06:26:15;17.20;;;8.30;;
17384;SDS011;8810;48.680;8.894;2023-02-15T06:28:41;17.00;;;8.30;;
17384;SDS011;8810;48.680;8.894;2023-02-15T06:31:08;16.13;;;8.90;;
17384;SDS011;8810;48.680;8.894;2023-02-15T06:33:37;18.53;;;9.07;;
17384;SDS011;8810;48.680;8.894;2023-02-15T06:36:04;19.80;;;9.37;;
17384;SDS011;8810;48.680;8.894;2023-02-15T06:38:31;24.30;;;10.73;;
17384;SDS011;8810;48.680;8.894;2023-02-15T06:40:58;26.03;;;11.87;;
17384;SDS011;8810;48.680;8.894;2023-02-15T06:43:25;21.97;;;9.93;;
17384;SDS011;8810;48.680;8.894;2023-02-15T06:45:52;18.80;;;9.73;;
17384;SDS011;8810;48.680;8.894;2023-02-15T06:48:18;16.17;;;9.50;;
17384;SDS011;8810;48.680;8.894;2023-02-15T06:50:46;20.13;;;9.30;;
17384;SDS011;8810;48.680;8.894;2023-02-15T06:53:14;23.27;;;11.80;;
17384;SDS011;8810;48.680;8.894;2023-02-15T06:55:41;18.97;;;9.27;;
17384;SDS011;8810;48.680;8.894;2023-02-15T06:58:08;19.43;;;9.67;;
17384;SDS011;8810;48.680;8.894;2023-02-15T07:00:34;18.63;;;9.53;;
17384;SDS011;8810;48.680;8.894;2023-02-15T07:03:01;20.73;;;9.57;;
17384;SDS011;8810;48.680;8.894;2023-02-15T07:05:28;19.53;;;9.00;;
17384;SDS011;8810;48.680;8.894;2023-02-15T07:08:00;18.87;;;8.53;;
17384;SDS011;8810;48.680;8.894;2023-02-15T07:10:27;19.40;;;8.90;;
17384;SDS011;8810;48.680;8.894;2023-02-15T07:12:54;25.10;;;9.80;;
17384;SDS011;8810;48.680;8.894;2023-02-15T07:15:20;16.67;;;8.90;;
17384;SDS011;8810;48.680;8.894;2023-02-15T07:17:47;16.90;;;8.33;;
17384;SDS011;8810;48.680;8.894;2023-02-15T07:20:15;16.83;;;8.03;;
17384;SDS011;8810;48.680;8.894;2023-02-15T07:22:43;13.73;;;7.47;;
17384;SDS011;8810;48.680;8.894;2023-02-15T07:25:11;13.80;;;7.27;;
17384;SDS011;8810;48.680;8.894;2023-02-15T07:27:39;16.93;;;7.13;;
17384;SDS011;8810;48.680;8.894;2023-02-15T07:30:07;13.90;;;7.13;;
17384;SDS011;8810;48.680;8.894;2023-02-15T07:32:35;13.80;;;6.50;;
17384;SDS011;8810;48.680;8.894;2023-02-15T07:35:22;13.37;;;6.77;;
17384;SDS011;8810;48.680;8.894;2023-02-15T07:37:49;16.37;;;7.77;;
17384;SDS011;8810;48.680;8.894;2023-02-15T07:40:17;17.20;;;7.97;;
17384;SDS011;8810;48.680;8.894;2023-02-15T07:42:44;18.07;;;7.83;;
17384;SDS011;8810;48.680;8.894;2023-02-15T07:45:11;13.70;;;7.00;;
17384;SDS011;8810;48.680;8.894;2023-02-15T07:47:37;14.70;;;7.87;;
17384;SDS011;8810;48.680;8.894;2023-02-15T07:50:05;15.53;;;7.70;;
17384;SDS011;8810;48.680;8.894;2023-02-15T07:52:32;13.83;;;7.77;;
17384;SDS011;8810;48.680;8.894;2023-02-15T07:54:59;12.37;;;6.80;;
17384;SDS011;8810;48.680;8.894;2023-02-15T07:57:27;17.60;;;7.33;;
17384;SDS011;8810;48.680;8.894;2023-02-15T07:59:54;12.17;;;7.17;;
17384;SDS011;8810;48.680;8.894;2023-02-15T08:02:21;16.47;;;8.37;;
17384;SDS011;8810;48.680;8.894;2023-02-15T08:04:48;15.27;;;7.70;;
17384;SDS011;8810;48.680;8.894;2023-02-15T08:07:15;15.17;;;7.40;;
17384;SDS011;8810;48.680;8.894;2023-02-15T08:09:42;11.80;;;7.07;;
17384;SDS011;8810;48.680;8.894;2023-02-15T08:12:08;12.93;;;7.23;;
17384;SDS011;8810;48.680;8.894;2023-02-15T08:14:37;12.90;;;7.13;;
17384;SDS011;8810;48.680;8.894;2023-02-15T08:17:03;11.63;;;6.20;;
17384;SDS011;8810;48.680;8.894;2023-02-15T08:19:31;13.37;;;6.80;;
17384;SDS011;8810;48.680;8.894;2023-02-15T08:21:59;14.23;;;8.23;;
17384;SDS011;8810;48.680;8.894;2023-02-15T08:24:28;18.73;;;10.30;;
17384;SDS011;8810;48.680;8.894;2023-02-15T08:26:57;23.13;;;10.17;;
17384;SDS011;8810;48.680;8.894;2023-02-15T08:29:28;14.90;;;8.33;;
17384;SDS011;8810;48.680;8.894;2023-02-15T08:31:58;17.57;;;8.67;;
17384;SDS011;8810;48.680;8.894;2023-02-15T08:34:28;19.70;;;10.17;;
17384;SDS011;8810;48.680;8.894;2023-02-15T08:36:56;17.20;;;9.53;;
17384;SDS011;8810;48.680;8.894;2023-02-15T08:39:23;14.30;;;8.67;;
17384;SDS011;8810;48.680;8.894;2023-02-15T08:41:50;15.97;;;8.73;;
17384;SDS011;8810;48.680;8.894;2023-02-15T08:44:17;19.87;;;10.97;;
17384;SDS011;8810;48.680;8.894;2023-02-15T08:46:46;14.33;;;8.17;;
17384;SDS011;8810;48.680;8.894;2023-02-15T08:49:16;15.03;;;8.70;;
17384;SDS011;8810;48.680;8.894;2023-02-15T08:51:44;19.03;;;9.40;;
17384;SDS011;8810;48.680;8.894;2023-02-15T08:54:13;16.20;;;8.77;;
17384;SDS011;8810;48.680;8.894;2023-02-15T08:56:42;14.33;;;8.07;;
17384;SDS011;8810;48.680;8.894;2023-02-15T08:59:12;15.00;;;7.50;;
17384;SDS011;8810;48.680;8.894;2023-02-15T09:01:41;12.53;;;7.30;;
17384;SDS011;8810;48.680;8.894;2023-02-15T09:04:08;13.30;;;7.20;;
17384;SDS011;8810;48.680;8.894;2023-02-15T09:06:37;13.93;;;7.73;;
17384;SDS011;8810;48.680;8.894;2023-02-15T09:09:05;14.60;;;7.73;;
17384;SDS011;8810;48.680;8.894;2023-02-15T09:11:33;16.30;;;8.20;;
17384;SDS011;8810;48.680;8.894;2023-02-15T09:14:02;20.87;;;11.23;;
17384;SDS011;8810;48.680;8.894;2023-02-15T09:16:31;13.13;;;7.97;;
17384;SDS011;8810;48.680;8.894;2023-02-15T09:18:59;16.30;;;8.90;;
17384;SDS011;8810;48.680;8.894;2023-02-15T09:21:27;13.57;;;8.37;;
17384;SDS011;8810;48.680;8.894;2023-02-15T09:23:57;11.23;;;6.97;;
17384;SDS011;8810;48.680;8.894;2023-02-15T09:26:25;12.47;;;7.30;;
17384;SDS011;8810;48.680;8.894;2023-02-15T09:28:53;9.87;;;6.57;;
17384;SDS011;8810;48.680;8.894;2023-02-15T09:31:24;11.80;;;7.20;;
17384;SDS011;8810;48.680;8.894;2023-02-15T09:33:52;11.47;;;6.37;;
17384;SDS011;8810;48.680;8.894;2023-02-15T09:36:21;11.10;;;6.57;;
17384;SDS011;8810;48.680;8.894;2023-02-15T09:38:52;11.70;;;6.57;;
17384;SDS011;8810;48.680;8.894;2023-02-15T09:41:34;10.07;;;6.00;;
17384;SDS011;8810;48.680;8.894;2023-02-15T09:44:23;13.23;;;6.40;;
17384;SDS011;8810;48.680;8.894;2023-02-15T09:47:05;10.70;;;6.00;;
17384;SDS011;8810;48.680;8.894;2023-02-15T09:49:43;9.17;;;6.13;;
17384;SDS011;8810;48.680;8.894;2023-02-15T09:52:19;10.60;;;6.30;;
17384;SDS011;8810;48.680;8.894;2023-02-15T09:55:03;11.80;;;6.67;;
17384;SDS011;8810;48.680;8.894;2023-02-15T09:57:44;8.37;;;5.67;;
17384;SDS011;8810;48.680;8.894;2023-02-15T10:00:21;13.23;;;7.50;;
17384;SDS011;8810;48.680;8.894;2023-02-15T10:03:00;11.50;;;6.90;;
17384;SDS011;8810;48.680;8.894;2023-02-15T10:05:38;13.67;;;7.37;;
17384;SDS011;8810;48.680;8.894;2023-02-15T10:08:20;10.83;;;7.07;;
17384;SDS011;8810;48.680;8.894;2023-02-15T10:11:20;11.83;;;6.50;;
17384;SDS011;8810;48.680;8.894;2023-02-15T10:14:19;14.07;;;6.50;;
17384;SDS011;8810;48.680;8.894;2023-02-15T10:17:04;10.00;;;6.43;;
17384;SDS011;8810;48.680;8.894;2023-02-15T10:19:43;10.43;;;6.20;;
17384;SDS011;8810;48.680;8.894;2023-02-15T10:22:24;10.00;;;6.37;;
17384;SDS011;8810;48.680;8.894;2023-02-15T10:25:02;6.63;;;4.63;;
17384;SDS011;8810;48.680;8.894;2023-02-15T10:27:38;8.83;;;5.50;;
17384;SDS011;8810;48.680;8.894;2023-02-15T10:32:45;10.27;;;5.60;;
17384;SDS011;8810;48.680;8.894;2023-02-15T10:35:20;8.83;;;5.27;;
17384;SDS011;8810;48.680;8.894;2023-02-15T10:40:54;8.57;;;5.43;;
17384;SDS011;8810;48.680;8.894;2023-02-15T10:43:33;8.55;;;5.05;;
17384;SDS011;8810;48.680;8.894;2023-02-15T10:46:15;8.07;;;4.70;;
17384;SDS011;8810;48.680;8.894;2023-02-15T10:52:09;6.25;;;4.15;;
17384;SDS011;8810;48.680;8.894;2023-02-15T10:54:48;5.65;;;3.50;;
17384;SDS011;8810;48.680;8.894;2023-02-15T10:57:24;7.53;;;3.75;;
17384;SDS011;8810;48.680;8.894;2023-02-15T11:00:02;5.30;;;3.90;;
17384;SDS011;8810;48.680;8.894;2023-02-15T11:02:42;8.48;;;4.60;;
17384;SDS011;8810;48.680;8.894;2023-02-15T11:05:20;8.43;;;5.05;;
17384;SDS011;8810;48.680;8.894;2023-02-15T11:07:54;9.75;;;5.13;;
17384;SDS011;8810;48.680;8.894;2023-02-15T11:10:26;5.80;;;4.10;;
17384;SDS011;8810;48.680;8.894;2023-02-15T11:12:57;7.85;;;4.55;;
17384;SDS011;8810;48.680;8.894;2023-02-15T11:15:29;8.52;;;4.93;;
17384;SDS011;8810;48.680;8.894;2023-02-15T11:18:01;9.15;;;5.72;;
17384;SDS011;8810;48.680;8.894;2023-02-15T11:20:33;5.85;;;4.10;;
17384;SDS011;8810;48.680;8.894;2023-02-15T11:23:07;6.15;;;3.80;;
17384;SDS011;8810;48.680;8.894;2023-02-15T11:25:41;7.22;;;3.60;;
17384;SDS011;8810;48.680;8.894;2023-02-15T11:28:15;9.80;;;3.75;;
17384;SDS011;8810;48.680;8.894;2023-02-15T11:30:48;7.10;;;4.25;;
17384;SDS011;8810;48.680;8.894;2023-02-15T11:33:21;8.35;;;3.70;;
17384;SDS011;8810;48.680;8.894;2023-02-15T11:35:53;7.90;;;3.10;;
17384;SDS011;8810;48.680;8.894;2023-02-15T11:38:26;4.90;;;3.70;;
17384;SDS011;8810;48.680;8.894;2023-02-15T11:40:58;7.45;;;3.38;;
17384;SDS011;8810;48.680;8.894;2023-02-15T11:43:30;5.32;;;3.60;;
17384;SDS011;8810;48.680;8.894;2023-02-15T11:46:01;3.85;;;2.92;;
17384;SDS011;8810;48.680;8.894;2023-02-15T11:48:30;5.93;;;3.63;;
17384;SDS011;8810;48.680;8.894;2023-02-15T11:50:58;8.55;;;2.88;;
17384;SDS011;8810;48.680;8.894;2023-02-15T11:53:26;5.22;;;2.90;;
17384;SDS011;8810;48.680;8.894;2023-02-15T11:55:57;7.90;;;3.40;;
17384;SDS011;8810;48.680;8.894;2023-02-15T11:58:28;4.55;;;3.17;;
17384;SDS011;8810;48.680;8.894;2023-02-15T12:01:00;7.97;;;3.90;;
17384;SDS011;8810;48.680;8.894;2023-02-15T12:03:39;9.02;;;4.97;;
17384;SDS011;8810;48.680;8.894;2023-02-15T12:06:13;5.82;;;3.17;;
17384;SDS011;8810;48.680;8.894;2023-02-15T12:08:48;5.28;;;2.88;;
17384;SDS011;8810;48.680;8.894;2023-02-15T12:11:19;5.93;;;2.70;;
17384;SDS011;8810;48.680;8.894;2023-02-15T12:13:57;4.55;;;2.60;;
17384;SDS011;8810;48.680;8.894;2023-02-15T12:16:25;4.80;;;2.50;;
17384;SDS011;8810;48.680;8.894;2023-02-15T12:18:55;6.43;;;3.40;;
17384;SDS011;8810;48.680;8.894;2023-02-15T12:21:24;6.03;;;3.25;;
17384;SDS011;8810;48.680;8.894;2023-02-15T12:23:55;9.90;;;3.53;;
17384;SDS011;8810;48.680;8.894;2023-02-15T12:26:25;7.45;;;3.40;;
17384;SDS011;8810;48.680;8.894;2023-02-15T12:28:53;10.40;;;4.07;;
17384;SDS011;8810;48.680;8.894;2023-02-15T12:31:24;8.10;;;3.50;;
17384;SDS011;8810;48.680;8.894;2023-02-15T12:33:59;4.97;;;3.40;;
17384;SDS011;8810;48.680;8.894;2023-02-15T12:36:29;7.78;;;3.50;;
17384;SDS011;8810;48.680;8.894;2023-02-15T12:39:16;6.85;;;3.47;;
17384;SDS011;8810;48.680;8.894;2023-02-15T12:41:46;3.80;;;2.92;;
17384;SDS011;8810;48.680;8.894;2023-02-15T12:44:23;6.78;;;3.33;;
17384;SDS011;8810;48.680;8.894;2023-02-15T12:46:58;7.00;;;3.58;;
17384;SDS011;8810;48.680;8.894;2023-02-15T12:49:28;5.78;;;3.58;;
17384;SDS011;8810;48.680;8.894;2023-02-15T12:51:57;5.55;;;3.28;;
17384;SDS011;8810;48.680;8.894;2023-02-15T12:54:32;8.00;;;3.40;;
17384;SDS011;8810;48.680;8.894;2023-02-15T12:57:19;11.90;;;3.38;;
17384;SDS011;8810;48.680;8.894;2023-02-15T12:59:50;8.60;;;3.00;;
17384;SDS011;8810;48.680;8.894;2023-02-15T13:02:22;5.40;;;2.63;;
17384;SDS011;8810;48.680;8.894;2023-02-15T13:04:53;5.93;;;2.80;;
17384;SDS011;8810;48.680;8.894;2023-02-15T13:07:23;4.95;;;2.92;;
17384;SDS011;8810;48.680;8.894;2023-02-15T13:09:56;6.22;;;2.10;;
17384;SDS011;8810;48.680;8.894;2023-02-15T13:12:24;6.15;;;2.28;;
17384;SDS011;8810;48.680;8.894;2023-02-15T13:14:55;8.38;;;3.08;;
17384;SDS011;8810;48.680;8.894;2023-02-15T13:17:24;7.63;;;2.90;;
17384;SDS011;8810;48.680;8.894;2023-02-15T13:19:57;4.75;;;2.85;;
17384;SDS011;8810;48.680;8.894;2023-02-15T13:22:28;5.40;;;2.10;;
17384;SDS011;8810;48.680;8.894;2023-02-15T13:25:02;6.80;;;2.50;;
17384;SDS011;8810;48.680;8.894;2023-02-15T13:27:37;3.45;;;1.90;;
17384;SDS011;8810;48.680;8.894;2023-02-15T13:30:11;7.85;;;2.40;;
17384;SDS011;8810;48.680;8.894;2023-02-15T13:32:46;5.05;;;2.60;;
17384;SDS011;8810;48.680;8.894;2023-02-15T13:35:17;5.15;;;2.40;;
17384;SDS011;8810;48.680;8.894;2023-02-15T13:37:49;7.82;;;2.13;;
17384;SDS011;8810;48.680;8.894;2023-02-15T13:40:40;4.65;;;2.13;;
17384;SDS011;8810;48.680;8.894;2023-02-15T13:43:16;3.60;;;2.38;;
17384;SDS011;8810;48.680;8.894;2023-02-15T13:45:54;5.07;;;2.10;;
17384;SDS011;8810;48.680;8.894;2023-02-15T13:48:34;3.47;;;2.00;;
17384;SDS011;8810;48.680;8.894;2023-02-15T13:51:13;5.07;;;2.50;;
17384;SDS011;8810;48.680;8.894;2023-02-15T13:53:49;7.28;;;2.45;;
17384;SDS011;8810;48.680;8.894;2023-02-15T13:56:28;6.75;;;2.28;;
17384;SDS011;8810;48.680;8.894;2023-02-15T13:59:10;6.82;;;2.53;;
17384;SDS011;8810;48.680;8.894;2023-02-15T14:01:57;8.40;;;2.45;;
17384;SDS011;8810;48.680;8.894;2023-02-15T14:04:40;8.18;;;2.30;;
17384;SDS011;8810;48.680;8.894;2023-02-15T14:07:25;4.57;;;2.42;;
17384;SDS011;8810;48.680;8.894;2023-02-15T14:10:19;8.18;;;3.00;;
17384;SDS011;8810;48.680;8.894;2023-02-15T14:12:58;3.83;;;2.55;;
17384;SDS011;8810;48.680;8.894;2023-02-15T14:15:43;24.15;;;11.95;;
17384;SDS011;8810;48.680;8.894;2023-02-15T14:18:15;16.73;;;5.80;;
17384;SDS011;8810;48.680;8.894;2023-02-15T14:20:51;7.22;;;2.80;;
17384;SDS011;8810;48.680;8.894;2023-02-15T14:23:31;4.47;;;2.67;;
17384;SDS011;8810;48.680;8.894;2023-02-15T14:26:09;7.70;;;3.00;;
17384;SDS011;8810;48.680;8.894;2023-02-15T14:28:41;4.25;;;2.70;;
17384;SDS011;8810;48.680;8.894;2023-02-15T14:31:12;7.10;;;3.08;;
17384;SDS011;8810;48.680;8.894;2023-02-15T14:33:43;11.85;;;6.50;;
17384;SDS011;8810;48.680;8.894;2023-02-15T14:36:18;5.15;;;2.97;;
17384;SDS011;8810;48.680;8.894;2023-02-15T14:38:56;4.53;;;2.88;;
17384;SDS011;8810;48.680;8.894;2023-02-15T14:41:52;8.90;;;5.32;;
17384;SDS011;8810;48.680;8.894;2023-02-15T14:44:23;5.70;;;3.47;;
17384;SDS011;8810;48.680;8.894;2023-02-15T14:47:03;7.95;;;3.22;;
17384;SDS011;8810;48.680;8.894;2023-02-15T14:49:37;8.13;;;3.83;;
17384;SDS011;8810;48.680;8.894;2023-02-15T14:52:05;6.85;;;4.05;;
17384;SDS011;8810;48.680;8.894;2023-02-15T14:57:34;7.82;;;4.25;;
17384;SDS011;8810;48.680;8.894;2023-02-15T15:05:50;8.63;;;3.75;;
17384;SDS011;8810;48.680;8.894;2023-02-15T15:08:22;7.35;;;3.97;;
17384;SDS011;8810;48.680;8.894;2023-02-15T15:10:55;11.45;;;4.15;;
17384;SDS011;8810;48.680;8.894;2023-02-15T15:13:35;10.35;;;3.55;;
17384;SDS011;8810;48.680;8.894;2023-02-15T15:18:52;10.70;;;4.30;;
17384;SDS011;8810;48.680;8.894;2023-02-15T15:33:46;11.65;;;4.20;;
17384;SDS011;8810;48.680;8.894;2023-02-15T15:36:50;12.57;;;6.00;;
17384;SDS011;8810;48.680;8.894;2023-02-15T15:42:49;10.73;;;5.97;;
17384;SDS011;8810;48.680;8.894;2023-02-15T15:45:35;13.23;;;5.97;;
17384;SDS011;8810;48.680;8.894;2023-02-15T15:48:31;14.70;;;5.40;;
17384;SDS011;8810;48.680;8.894;2023-02-15T15:51:00;13.60;;;5.57;;
17384;SDS011;8810;48.680;8.894;2023-02-15T15:53:32;13.85;;;6.50;;
17384;SDS011;8810;48.680;8.894;2023-02-15T15:56:05;10.18;;;6.15;;
17384;SDS011;8810;48.680;8.894;2023-02-15T15:58:37;13.35;;;7.30;;